Time;durP1;ratioP1;P1;durP2;ratioP2;P2;SDS_P1;SDS_P2;PMS_P1;PMS_P2;Temp;Humidity;BMP_temperature;BMP_pressure;BME280_temperature;BME280_humidity;BME280_pressure;Samples;Min_cycle;Max_cycle;Signal;HPM_P1;HPM_P2
2022/07/11 00:00:12;;;;;;;5.75;1.38;;;;;;;11.76;100.00;97050.38;10413643;28;20201;-73
2022/07/11 00:05:12;;;;;;;3.67;1.70;;;;;;;11.63;100.00;97045.56;10412205;28;20758;-73
2022/07/11 00:10:13;;;;;;;4.05;1.52;;;;;;;11.64;100.00;97043.75;10395215;28;20207;-72
2022/07/11 00:15:13;;;;;;;2.80;1.45;;;;;;;11.56;100.00;97047.13;10412656;28;20220;-73
2022/07/11 00:20:13;;;;;;;4.80;1.63;;;;;;;11.61;100.00;97044.91;10412484;28;20339;-72
2022/07/11 00:25:14;;;;;;;4.57;1.60;;;;;;;11.38;100.00;97037.53;10412022;28;20196;-73
2022/07/11 00:30:16;;;;;;;2.58;1.40;;;;;;;11.56;100.00;97034.03;10412243;28;20600;-73
2022/07/11 00:35:16;;;;;;;4.97;1.65;;;;;;;11.53;100.00;97031.72;10412103;28;20263;-73
2022/07/11 00:40:17;;;;;;;6.15;1.85;;;;;;;11.55;100.00;97027.16;10411990;28;20282;-73
2022/07/11 00:45:17;;;;;;;5.65;1.77;;;;;;;11.39;100.00;97033.94;10411987;28;20187;-73
2022/07/11 00:50:17;;;;;;;3.45;1.60;;;;;;;11.14;100.00;97032.91;10411088;28;20687;-72
2022/07/11 00:55:19;;;;;;;3.55;1.60;;;;;;;10.96;100.00;97025.06;10410816;28;20562;-73
2022/07/11 01:00:19;;;;;;;3.33;1.70;;;;;;;10.85;100.00;97031.38;10392435;28;20205;-73
2022/07/11 01:05:20;;;;;;;4.67;1.80;;;;;;;10.80;100.00;97032.81;10410227;28;20580;-73
2022/07/11 01:10:20;;;;;;;8.33;2.07;;;;;;;10.45;100.00;97026.56;10393054;28;20199;-73
2022/07/11 01:15:20;;;;;;;5.50;1.80;;;;;;;10.50;100.00;97032.19;10392649;28;20660;-72
2022/07/11 01:20:24;;;;;;;6.27;2.43;;;;;;;10.48;100.00;97021.03;10409530;28;20192;-73
2022/07/11 01:25:30;;;;;;;8.27;2.70;;;;;;;10.54;100.00;97028.28;10409955;28;20246;-73
2022/07/11 01:30:31;;;;;;;5.10;2.27;;;;;;;10.62;100.00;97028.38;10410004;28;20280;-73
2022/07/11 01:35:32;;;;;;;7.60;2.37;;;;;;;10.75;100.00;97030.63;10407230;28;20207;-72
2022/07/11 01:40:32;;;;;;;5.17;2.00;;;;;;;10.88;100.00;97025.81;10392307;28;20951;-73
2022/07/11 01:45:32;;;;;;;5.60;2.70;;;;;;;10.94;100.00;97021.78;10409085;28;20683;-73
2022/07/11 01:50:33;;;;;;;6.53;2.93;;;;;;;10.64;100.00;97028.22;10409096;28;20262;-73
2022/07/11 01:55:33;;;;;;;7.60;2.77;;;;;;;10.69;100.00;97031.25;10390831;28;20283;-72
2022/07/11 02:00:34;;;;;;;6.78;2.72;;;;;;;10.80;100.00;97031.00;10409092;28;20188;-73
2022/07/11 02:05:34;;;;;;;4.63;2.38;;;;;;;10.80;100.00;97020.53;10408185;28;20236;-73
2022/07/11 02:10:36;;;;;;;3.37;2.53;;;;;;;10.81;100.00;97021.34;10408374;28;20212;-73
2022/07/11 02:15:36;;;;;;;5.43;2.70;;;;;;;10.81;100.00;97016.94;10408356;28;20634;-73
2022/07/11 02:20:38;;;;;;;6.37;2.40;;;;;;;10.95;100.00;97020.81;10408406;28;20200;-73
2022/07/11 02:25:39;;;;;;;3.47;2.03;;;;;;;10.98;100.00;97019.66;10408093;28;20211;-74
2022/07/11 02:30:41;;;;;;;7.88;2.35;;;;;;;10.99;100.00;97026.56;10407995;28;20199;-72
2022/07/11 02:35:47;;;;;;;3.55;2.10;;;;;;;10.83;100.00;97024.66;10408201;28;20194;-73
2022/07/11 02:40:48;;;;;;;5.60;2.17;;;;;;;10.89;100.00;97026.66;10391088;28;20197;-73
2022/07/11 02:45:48;;;;;;;6.60;2.20;;;;;;;10.88;100.00;97028.44;10407518;28;20204;-73
2022/07/11 02:50:48;;;;;;;5.73;1.83;;;;;;;10.91;100.00;97022.09;10389905;28;20680;-73
2022/07/11 02:55:49;;;;;;;5.00;2.13;;;;;;;10.86;100.00;97021.72;10407225;28;20541;-73
2022/07/11 03:00:49;;;;;;;2.03;1.83;;;;;;;10.85;100.00;97027.94;10408078;28;20192;-73
2022/07/11 03:05:50;;;;;;;5.90;2.22;;;;;;;10.97;100.00;97029.34;10402009;28;20601;-73
2022/07/11 03:10:50;;;;;;;3.97;2.03;;;;;;;10.82;100.00;97031.66;10400656;28;20610;-73
2022/07/11 03:15:51;;;;;;;5.88;1.85;;;;;;;10.94;100.00;97044.56;10399551;28;20308;-73
2022/07/11 03:20:51;;;;;;;10.90;2.67;;;;;;;11.02;100.00;97042.81;10398312;28;20744;-74
2022/07/11 03:25:51;;;;;;;6.07;1.90;;;;;;;10.87;100.00;97045.16;10398624;28;20331;-73
2022/07/11 03:30:52;;;;;;;9.10;1.90;;;;;;;10.78;100.00;97039.97;10399454;28;20212;-74
2022/07/11 03:35:52;;;;;;;8.68;2.20;;;;;;;10.95;100.00;97035.69;10399001;28;20318;-73
2022/07/11 03:40:53;;;;;;;9.10;2.08;;;;;;;10.78;100.00;97053.94;10400441;28;20193;-74
2022/07/11 03:45:53;;;;;;;3.50;1.83;;;;;;;10.92;100.00;97049.94;10406211;28;20196;-73
2022/07/11 03:50:54;;;;;;;10.95;2.83;;;;;;;11.01;100.00;97053.44;10406521;28;20479;-73
2022/07/11 03:55:54;;;;;;;6.38;1.52;;;;;;;10.99;100.00;97056.22;10406311;28;20636;-72
2022/07/11 04:00:54;;;;;;;5.00;1.63;;;;;;;11.03;100.00;97049.72;10407234;28;20251;-73
2022/07/11 04:05:55;;;;;;;5.57;2.20;;;;;;;10.98;100.00;97051.13;10412888;28;20244;-73
2022/07/11 04:10:55;;;;;;;5.57;2.08;;;;;;;10.98;100.00;97059.00;10413352;28;20315;-73
2022/07/11 04:15:56;;;;;;;7.00;1.80;;;;;;;11.23;100.00;97054.78;10412796;28;20192;-72
2022/07/11 04:20:56;;;;;;;6.45;1.95;;;;;;;11.21;100.00;97056.75;10413308;28;20188;-74
2022/07/11 04:25:56;;;;;;;6.40;1.80;;;;;;;11.31;100.00;97059.28;10412533;28;20193;-73
2022/07/11 04:30:57;;;;;;;9.18;1.80;;;;;;;11.21;100.00;97059.38;10412598;28;20215;-73
2022/07/11 04:35:57;;;;;;;8.85;2.17;;;;;;;11.39;100.00;97059.31;10411710;28;20301;-73
2022/07/11 04:40:57;;;;;;;9.98;2.13;;;;;;;11.58;100.00;97063.56;10412381;28;20200;-73
2022/07/11 04:45:58;;;;;;;4.63;1.70;;;;;;;11.93;100.00;97048.72;10411830;28;20204;-74
2022/07/11 04:50:58;;;;;;;12.80;1.85;;;;;;;12.12;100.00;97045.00;10411322;28;20312;-73
2022/07/11 04:55:59;;;;;;;7.80;1.75;;;;;;;12.09;100.00;97043.53;10411684;28;20192;-72
2022/07/11 05:01:00;;;;;;;6.15;1.95;;;;;;;12.18;100.00;97048.81;10411037;28;20203;-73
2022/07/11 05:06:00;;;;;;;6.65;1.67;;;;;;;12.14;100.00;97056.16;10410742;28;20320;-73
2022/07/11 05:11:02;;;;;;;10.88;2.08;;;;;;;11.94;100.00;97058.22;10410935;28;20764;-73
2022/07/11 05:16:02;;;;;;;6.55;2.25;;;;;;;12.04;100.00;97061.56;10392759;28;20189;-73
2022/07/11 05:21:02;;;;;;;5.72;1.80;;;;;;;12.26;100.00;97065.41;10411025;28;20307;-73
2022/07/11 05:26:04;;;;;;;5.60;1.70;;;;;;;12.29;100.00;97051.97;10410021;28;20653;-73
2022/07/11 05:31:04;;;;;;;4.00;1.55;;;;;;;12.53;100.00;97058.28;10409070;28;20684;-73
2022/07/11 05:36:05;;;;;;;6.82;1.90;;;;;;;12.79;100.00;97054.75;10409807;28;20600;-73
2022/07/11 05:41:05;;;;;;;5.82;1.80;;;;;;;12.88;100.00;97055.56;10410108;28;20191;-73
2022/07/11 05:46:06;;;;;;;4.28;1.38;;;;;;;13.24;99.46;97057.91;10409077;28;20679;-73
2022/07/11 05:51:06;;;;;;;7.47;1.90;;;;;;;13.33;96.80;97041.13;10391903;28;20232;-73
2022/07/11 05:56:07;;;;;;;5.13;1.50;;;;;;;13.86;92.90;97020.50;10408825;28;20295;-73
2022/07/11 06:01:08;;;;;;;4.57;1.42;;;;;;;13.88;92.22;97042.19;10408158;28;20187;-73
2022/07/11 06:06:10;;;;;;;3.85;1.20;;;;;;;13.81;90.88;97035.97;10366201;28;20252;-73
2022/07/11 06:11:12;;;;;;;3.97;1.17;;;;;;;14.13;89.87;97048.19;10367889;28;20244;-73
2022/07/11 06:16:12;;;;;;;3.53;1.45;;;;;;;13.82;89.99;97054.22;10366480;28;20335;-74
2022/07/11 06:21:13;;;;;;;11.13;1.33;;;;;;;14.14;89.50;97054.31;10366743;28;20327;-73
2022/07/11 06:26:15;;;;;;;4.38;1.67;;;;;;;14.72;89.22;97050.41;10367494;28;20192;-73
2022/07/11 06:31:16;;;;;;;6.93;1.70;;;;;;;15.04;82.02;96989.69;10364321;28;20640;-73
2022/07/11 06:36:19;;;;;;;4.90;0.98;;;;;;;14.98;83.28;97020.25;10366464;28;20208;-73
2022/07/11 06:41:19;;;;;;;4.38;1.20;;;;;;;14.63;81.74;97020.63;10366854;28;20192;-73
2022/07/11 06:46:20;;;;;;;6.95;1.30;;;;;;;14.54;82.80;97048.00;10361452;28;20197;-73
2022/07/11 06:51:21;;;;;;;4.22;1.35;;;;;;;14.26;84.69;97061.66;10364918;28;20213;-73
2022/07/11 06:56:22;;;;;;;6.43;1.10;;;;;;;14.58;84.21;97048.50;10363365;28;20200;-73
2022/07/11 07:01:23;;;;;;;6.13;1.30;;;;;;;14.84;83.21;97042.94;10362462;28;20189;-72
2022/07/11 07:06:23;;;;;;;3.17;0.88;;;;;;;14.03;84.09;97058.13;10389445;28;20236;-74
2022/07/11 07:11:23;;;;;;;6.40;1.40;;;;;;;14.29;84.10;97055.22;10361469;28;20224;-74
2022/07/11 07:16:24;;;;;;;2.30;0.70;;;;;;;14.71;80.97;97035.59;10365082;28;20280;-74
2022/07/11 07:21:25;;;;;;;2.88;0.90;;;;;;;14.16;77.46;96989.88;10372753;28;20216;-73
2022/07/11 07:26:26;;;;;;;3.20;1.10;;;;;;;14.46;78.83;97016.44;10371254;28;20204;-74
2022/07/11 07:31:26;;;;;;;5.15;1.00;;;;;;;14.64;79.69;97042.56;10371589;28;20602;-73
2022/07/11 07:36:26;;;;;;;3.28;1.15;;;;;;;15.53;77.23;97010.38;10371399;28;20597;-73
2022/07/11 07:41:27;;;;;;;3.85;1.10;;;;;;;16.71;72.30;96939.81;10372788;28;20599;-74
2022/07/11 07:46:27;;;;;;;3.60;1.20;;;;;;;15.41;72.42;96948.44;10370463;28;20624;-75
2022/07/11 07:51:28;;;;;;;6.68;1.00;;;;;;;14.65;74.11;96977.47;10370828;28;20655;-73
2022/07/11 07:56:28;;;;;;;5.30;0.90;;;;;;;14.67;74.52;96981.56;10368847;28;20201;-73
2022/07/11 08:01:34;;;;;;;1.52;0.70;;;;;;;15.76;70.99;96946.06;10367345;28;20242;-73
2022/07/11 08:06:35;;;;;;;1.90;0.88;;;;;;;17.53;62.82;96836.13;10406978;28;20236;-73
2022/07/11 08:11:36;;;;;;;5.18;0.90;;;;;;;18.45;59.68;96820.66;10393098;28;20588;-73
2022/07/11 08:16:36;;;;;;;4.30;0.98;;;;;;;16.32;63.18;96847.72;10410220;28;20192;-75
2022/07/11 08:22:00;;;;;;;3.70;0.85;;;;;;;17.40;63.04;96888.03;10411491;28;20192;-72
2022/07/11 08:27:09;;;;;;;2.15;0.70;;;;;;;15.60;66.21;96926.75;10408028;28;20219;-73
2022/07/11 08:32:27;;;;;;;4.25;0.77;;;;;;;17.28;61.03;96847.22;10410278;28;20224;-71
2022/07/11 08:37:41;;;;;;;2.15;0.70;;;;;;;18.98;57.92;96818.00;10410709;28;20203;-72
2022/07/11 08:42:51;;;;;;;2.60;0.80;;;;;;;20.06;54.78;96775.84;10410904;28;20711;-70
2022/07/11 08:53:45;;;;;;;0.95;0.50;;;;;;;19.14;55.58;96805.28;10398444;28;20754;-71
2022/07/11 08:58:52;;;;;;;2.67;0.98;;;;;;;19.77;53.25;96765.63;10392692;28;20327;-70
2022/07/11 09:04:02;;;;;;;3.75;0.88;;;;;;;18.60;55.87;96784.13;10392250;28;20228;-71
2022/07/11 09:09:15;;;;;;;1.90;0.70;;;;;;;18.45;57.83;96842.72;10407354;28;20575;-73
2022/07/11 09:14:26;;;;;;;1.15;0.55;;;;;;;17.93;55.54;96770.88;10408854;28;20220;-73
2022/07/11 09:19:28;;;;;;;1.65;0.68;;;;;;;20.33;50.94;96731.25;10408943;28;20193;-73
2022/07/11 09:30:16;;;;;;;5.70;0.88;;;;;;;18.73;53.56;96764.72;10342390;28;20302;-72
2022/07/11 09:35:16;;;;;;;3.50;0.70;;;;;;;19.35;53.40;96785.63;10408198;28;20223;-72
2022/07/11 09:40:17;;;;;;;1.27;0.57;;;;;;;20.30;51.07;96743.13;10408442;28;20797;-73
2022/07/11 09:45:25;;;;;;;1.73;0.73;;;;;;;21.55;48.65;96708.44;10409676;28;20184;-73
2022/07/11 09:50:30;;;;;;;3.17;0.70;;;;;;;21.94;49.28;96732.09;10409447;28;20201;-73
2022/07/11 09:55:37;;;;;;;1.27;0.70;;;;;;;20.72;50.99;96752.41;10409122;28;20274;-73
2022/07/11 10:00:39;;;;;;;2.05;0.60;;;;;;;20.65;51.45;96755.97;10391468;28;20199;-73
2022/07/11 10:05:39;;;;;;;1.35;0.45;;;;;;;17.86;54.99;96762.03;10408403;28;20652;-73
2022/07/11 10:10:39;;;;;;;3.92;0.57;;;;;;;20.15;54.16;96835.75;10408724;28;20193;-73
2022/07/11 10:15:44;;;;;;;2.95;0.57;;;;;;;21.86;45.38;96640.69;10408898;28;20232;-73
2022/07/11 10:20:58;;;;;;;3.28;0.70;;;;;;;20.32;52.43;96785.47;10390395;28;20192;-72
2022/07/11 10:26:14;;;;;;;4.63;0.70;;;;;;;19.45;55.65;96838.31;10386836;28;20218;-73
2022/07/11 10:31:24;;;;;;;2.80;0.70;;;;;;;21.62;49.87;96757.13;10408110;28;20219;-73
2022/07/11 10:36:29;;;;;;;1.98;0.65;;;;;;;19.81;50.76;96707.50;10407713;28;20239;-72
2022/07/11 10:41:29;;;;;;;1.92;0.70;;;;;;;23.43;45.14;96690.78;10408435;28;20667;-71
2022/07/11 10:46:29;;;;;;;3.55;0.70;;;;;;;22.92;45.04;96679.06;10389888;28;20196;-72
2022/07/11 10:52:12;;;;;;;1.33;0.50;;;;;;;19.66;52.95;96792.03;10412095;28;20231;-72
2022/07/11 10:57:21;;;;;;;1.45;0.57;;;;;;;19.24;50.66;96726.00;10398813;28;20187;-72
2022/07/11 11:02:21;;;;;;;5.00;0.90;;;;;;;22.32;47.12;96731.72;10413927;28;20767;-71
2022/07/11 11:07:29;;;;;;;2.47;0.60;;;;;;;23.22;46.62;96743.03;10399129;28;20223;-71
2022/07/11 11:13:04;;;;;;;0.50;0.40;;;;;;;22.91;44.99;96685.44;10415509;28;20692;-72
2022/07/11 11:18:25;;;;;;;1.33;0.47;;;;;;;21.01;48.77;96724.25;10414255;28;20286;-71
2022/07/11 11:23:28;;;;;;;1.63;0.50;;;;;;;22.73;48.06;96761.22;10415837;28;20196;-71
2022/07/11 11:28:28;;;;;;;1.60;0.40;;;;;;;24.15;44.11;96686.69;10396058;28;20228;-73
2022/07/11 11:33:30;;;;;;;1.58;0.60;;;;;;;22.89;43.01;96605.53;10397100;28;20342;-73
2022/07/11 11:38:34;;;;;;;3.15;0.70;;;;;;;24.10;42.68;96656.34;10414496;28;20196;-73
2022/07/11 11:43:36;;;;;;;1.45;0.50;;;;;;;25.28;39.92;96612.31;10414488;28;20342;-73
2022/07/11 11:48:37;;;;;;;0.52;0.40;;;;;;;25.58;36.91;96514.44;10413876;28;20283;-73
2022/07/11 11:53:39;;;;;;;1.70;0.60;;;;;;;25.71;39.51;96632.06;10396194;28;20220;-73
2022/07/11 11:58:43;;;;;;;2.63;0.63;;;;;;;24.68;39.29;96579.25;10413517;28;20269;-72
2022/07/11 12:03:55;;;;;;;2.47;0.38;;;;;;;24.66;40.83;96646.47;10393173;28;20551;-73
2022/07/11 12:09:46;;;;;;;2.47;0.63;;;;;;;22.65;45.04;96695.63;10394562;28;20227;-72
2022/07/11 12:14:45;;;;;;;2.58;0.47;;;;;;;24.37;42.40;96680.59;10404927;28;20984;-73
2022/07/11 12:19:45;;;;;;;5.68;0.68;;;;;;;23.12;43.06;96639.44;10378626;28;20212;-73
2022/07/11 12:24:48;;;;;;;3.10;0.55;;;;;;;22.67;44.09;96666.00;10412967;28;20199;-72
2022/07/11 12:29:51;;;;;;;1.65;0.57;;;;;;;23.55;42.35;96650.59;10412300;28;20199;-73
2022/07/11 12:34:52;;;;;;;0.65;0.40;;;;;;;26.37;38.74;96654.28;10412364;28;20726;-73
2022/07/11 12:39:56;;;;;;;2.00;0.50;;;;;;;26.11;38.12;96605.78;10412275;28;20188;-73
2022/07/11 12:45:07;;;;;;;0.90;0.40;;;;;;;26.37;37.55;96612.13;10412008;28;20439;-72
2022/07/11 12:50:15;;;;;;;1.75;0.40;;;;;;;26.30;36.85;96585.50;10394795;28;20240;-72
2022/07/11 12:55:27;;;;;;;0.75;0.47;;;;;;;24.70;39.83;96612.75;10411088;28;20902;-72
2022/07/11 13:00:29;;;;;;;1.13;0.40;;;;;;;23.95;42.28;96665.78;10411773;28;20197;-73
2022/07/11 13:05:29;;;;;;;1.00;0.57;;;;;;;24.56;40.45;96638.25;10392727;28;20228;-72
2022/07/11 13:15:50;;;;;;;0.73;0.40;;;;;;;22.52;46.56;96747.38;10399639;28;20220;-73
2022/07/11 13:20:51;;;;;;;2.22;0.63;;;;;;;22.67;45.98;96725.56;10410322;28;20204;-72
2022/07/11 13:25:51;;;;;;;0.90;0.40;;;;;;;23.84;43.09;96674.63;10409584;28;20193;-72
2022/07/11 13:30:52;;;;;;;3.97;0.50;;;;;;;24.46;41.98;96665.72;10392712;28;20204;-72
2022/07/11 13:35:52;;;;;;;2.53;0.50;;;;;;;22.85;43.22;96649.00;10409880;28;20204;-72
2022/07/11 13:40:53;;;;;;;0.90;0.40;;;;;;;25.45;38.77;96622.94;10409363;28;20906;-72
2022/07/11 13:45:53;;;;;;;1.67;0.40;;;;;;;26.18;38.11;96603.69;10388776;28;20188;-72
2022/07/11 13:57:04;;;;;;;3.65;0.40;;;;;;;25.88;38.45;96621.19;10431610;28;20497;-72
2022/07/11 14:02:04;;;;;;;2.92;0.50;;;;;;;26.36;37.75;96618.56;10421345;28;20860;-72
2022/07/11 14:07:05;;;;;;;0.40;0.40;;;;;;;25.37;39.78;96626.91;10409179;28;20227;-72
2022/07/11 14:12:06;;;;;;;2.50;0.60;;;;;;;25.23;41.25;96681.97;10407002;28;20310;-72
2022/07/11 14:17:06;;;;;;;0.90;0.40;;;;;;;27.94;36.71;96643.50;10409066;28;20441;-72
2022/07/11 14:22:06;;;;;;;0.35;0.32;;;;;;;27.95;36.09;96623.59;10408251;28;20199;-72
2022/07/11 14:27:07;;;;;;;0.43;0.40;;;;;;;27.73;35.42;96599.63;10406973;28;20547;-73
2022/07/11 14:32:07;;;;;;;1.13;0.43;;;;;;;29.05;32.93;96563.72;10404876;28;20234;-73
2022/07/11 14:37:08;;;;;;;1.33;0.40;;;;;;;30.05;31.05;96521.91;10387220;28;20439;-72
2022/07/11 14:42:08;;;;;;;1.10;0.40;;;;;;;28.96;32.88;96542.72;10405690;28;20724;-72
2022/07/11 14:47:08;;;;;;;1.13;0.47;;;;;;;26.07;37.27;96554.50;10406288;28;20223;-72
2022/07/11 14:52:09;;;;;;;2.63;0.68;;;;;;;24.57;39.42;96599.69;10405792;28;20580;-72
2022/07/11 14:57:10;;;;;;;3.03;0.50;;;;;;;24.61;41.00;96653.59;10405592;28;20203;-72
2022/07/11 15:02:11;;;;;;;1.35;0.40;;;;;;;25.19;38.81;96605.78;10404960;28;20212;-72
2022/07/11 15:12:30;;;;;;;0.50;0.45;;;;;;;24.42;39.77;96627.09;10404971;28;20482;-71
2022/07/11 15:17:30;;;;;;;2.35;0.52;;;;;;;25.76;37.57;96596.41;10405330;28;20193;-71
2022/07/11 15:22:31;;;;;;;0.60;0.50;;;;;;;23.05;41.11;96603.19;10405185;28;20675;-71
2022/07/11 15:27:31;;;;;;;1.10;0.30;;;;;;;22.17;43.02;96643.25;10404756;28;20502;-71
2022/07/11 15:32:31;;;;;;;1.55;0.40;;;;;;;21.57;44.44;96673.56;10404580;28;20221;-71
2022/07/11 15:37:32;;;;;;;3.42;0.60;;;;;;;22.73;42.79;96676.56;10406345;28;20291;-71
2022/07/11 15:42:32;;;;;;;4.93;0.50;;;;;;;21.88;43.36;96648.47;10412582;28;20192;-73
2022/07/11 15:47:33;;;;;;;1.42;0.65;;;;;;;22.29;42.77;96656.59;10412829;28;20657;-71
2022/07/11 15:52:33;;;;;;;0.50;0.40;;;;;;;22.29;43.09;96661.94;10393966;28;20678;-71
2022/07/11 15:57:34;;;;;;;1.92;0.50;;;;;;;21.21;44.58;96676.06;10412226;28;20560;-73
2022/07/11 16:02:34;;;;;;;1.25;0.68;;;;;;;20.52;46.20;96702.84;10413238;28;20267;-73
2022/07/11 16:07:34;;;;;;;1.67;0.88;;;;;;;20.54;47.04;96732.72;10413634;28;20267;-73
2022/07/11 16:12:35;;;;;;;0.60;0.60;;;;;;;20.40;46.94;96726.69;10414388;28;20224;-72
2022/07/11 16:17:35;;;;;;;1.48;0.52;;;;;;;20.77;47.05;96752.59;10412227;28;20200;-72
2022/07/11 16:22:40;;;;;;;2.92;0.85;;;;;;;21.11;46.70;96750.38;10413500;28;20593;-72
2022/07/11 16:27:40;;;;;;;4.63;0.63;;;;;;;21.55;44.67;96709.25;10413824;28;20188;-72
2022/07/11 16:32:41;;;;;;;1.23;0.55;;;;;;;22.32;42.68;96667.66;10413383;28;20227;-72
2022/07/11 16:37:41;;;;;;;0.95;0.60;;;;;;;22.88;42.15;96677.91;10413013;28;20195;-73
2022/07/11 16:48:00;;;;;;;0.63;0.45;;;;;;;22.13;43.18;96682.13;10394574;28;20280;-72
2022/07/11 16:53:01;;;;;;;1.02;0.65;;;;;;;21.39;43.73;96669.88;10410509;28;20232;-72
2022/07/11 16:58:01;;;;;;;2.92;0.63;;;;;;;20.82;45.16;96694.16;10412076;28;20196;-72
2022/07/11 17:03:04;;;;;;;1.63;0.70;;;;;;;20.63;44.91;96685.31;10411249;28;20229;-72
2022/07/11 17:13:25;;;;;;;0.65;0.52;;;;;;;19.66;47.45;96730.88;10409686;28;20559;-72
2022/07/11 17:18:25;;;;;;;0.60;0.60;;;;;;;19.73;48.96;96780.31;10411444;28;20192;-72
2022/07/11 17:23:26;;;;;;;2.75;0.65;;;;;;;19.82;48.00;96748.22;10392501;28;20227;-72
2022/07/11 17:28:27;;;;;;;2.22;0.68;;;;;;;19.83;48.66;96777.25;10392707;28;20189;-72
2022/07/11 17:33:28;;;;;;;1.45;0.75;;;;;;;19.86;48.26;96766.19;10392563;28;20221;-72
2022/07/11 17:38:28;;;;;;;0.50;0.50;;;;;;;19.78;48.82;96783.22;10392115;28;20196;-72
2022/07/11 17:43:29;;;;;;;0.60;0.60;;;;;;;19.44;49.25;96781.69;10392210;28;20551;-71
2022/07/11 17:48:29;;;;;;;1.08;0.70;;;;;;;19.21;49.70;96790.16;10409838;28;20192;-72
2022/07/11 17:53:30;;;;;;;1.40;0.57;;;;;;;19.05;49.73;96797.56;10409006;28;20220;-72
2022/07/11 17:58:30;;;;;;;2.28;0.63;;;;;;;19.14;49.66;96808.78;10409572;28;20307;-72
2022/07/11 18:03:32;;;;;;;0.82;0.57;;;;;;;18.94;50.78;96827.38;10390082;28;20752;-72
2022/07/11 18:08:32;;;;;;;1.08;0.70;;;;;;;18.88;51.33;96830.88;10409099;28;20212;-72
2022/07/11 18:13:32;;;;;;;2.05;0.82;;;;;;;18.57;53.45;96879.25;10408274;28;20688;-72
2022/07/11 18:18:33;;;;;;;1.67;0.80;;;;;;;18.03;55.19;96900.34;10408550;28;20641;-72
2022/07/11 18:23:33;;;;;;;3.40;1.02;;;;;;;17.56;57.48;96942.50;10408581;28;20720;-72
2022/07/11 18:28:33;;;;;;;1.42;0.90;;;;;;;17.17;59.29;96969.56;10408456;28;20200;-72
2022/07/11 18:33:34;;;;;;;1.90;0.90;;;;;;;16.49;62.88;97038.69;10408267;28;20715;-72
2022/07/11 18:43:59;;;;;;;0.98;0.77;;;;;;;15.59;68.41;97074.81;10406962;28;20200;-71
2022/07/11 18:49:02;;;;;;;1.85;0.90;;;;;;;14.53;71.62;97093.00;10407834;28;20204;-71
2022/07/11 18:54:03;;;;;;;1.17;0.85;;;;;;;13.81;75.07;97107.06;10406611;28;20587;-71
2022/07/11 18:59:03;;;;;;;2.03;1.10;;;;;;;13.31;79.00;97107.06;10407997;28;20207;-71
2022/07/11 19:04:03;;;;;;;3.88;0.90;;;;;;;13.16;81.21;97098.19;10407183;28;20607;-71
2022/07/11 19:09:05;;;;;;;1.42;0.90;;;;;;;13.09;82.57;97092.72;10407912;28;20298;-72
2022/07/11 19:14:06;;;;;;;2.20;0.95;;;;;;;13.35;81.20;97068.09;10414049;28;20229;-72
2022/07/11 19:19:06;;;;;;;1.17;1.00;;;;;;;12.97;83.53;97094.03;10415865;28;20189;-72
2022/07/11 19:24:11;;;;;;;2.70;1.63;;;;;;;12.99;84.22;97094.72;10415283;28;20633;-72
2022/07/11 19:29:11;;;;;;;4.45;1.00;;;;;;;12.75;85.45;97112.06;10398475;28;20207;-72
2022/07/11 19:34:12;;;;;;;3.58;1.10;;;;;;;12.33;88.23;97123.41;10414474;28;20228;-72
2022/07/11 19:39:14;;;;;;;1.02;0.93;;;;;;;12.52;87.90;97113.63;10415163;28;20262;-72
2022/07/11 19:44:14;;;;;;;1.40;1.30;;;;;;;12.42;88.95;97119.84;10416352;28;20562;-71
2022/07/11 19:49:33;;;;;;;1.33;1.20;;;;;;;12.25;89.53;97120.75;10415742;28;20200;-72
2022/07/11 19:59:55;;;;;;;4.22;1.38;;;;;;;12.05;90.13;97134.13;10413762;28;20192;-71
2022/07/11 20:04:55;;;;;;;1.52;1.30;;;;;;;11.89;92.00;97147.09;10412648;28;20282;-71
2022/07/11 20:09:55;;;;;;;2.70;1.33;;;;;;;11.77;93.34;97151.78;10412968;28;20254;-72
2022/07/11 20:14:57;;;;;;;5.93;1.30;;;;;;;11.79;92.89;97149.81;10395400;28;20311;-72
2022/07/11 20:19:57;;;;;;;2.75;1.60;;;;;;;11.65;93.85;97153.81;10412969;28;20199;-71
2022/07/11 20:24:58;;;;;;;2.75;2.03;;;;;;;11.60;94.15;97149.00;10411582;28;20188;-72
2022/07/11 20:29:58;;;;;;;6.55;1.30;;;;;;;11.48;94.90;97155.47;10412827;28;20201;-72
2022/07/11 20:34:59;;;;;;;5.43;1.40;;;;;;;11.38;95.85;97152.94;10412192;28;20584;-72
2022/07/11 20:39:59;;;;;;;2.22;1.20;;;;;;;11.24;97.07;97166.59;10412368;28;20211;-72
2022/07/11 20:44:59;;;;;;;2.37;1.40;;;;;;;11.14;97.50;97171.91;10412128;28;20193;-71
2022/07/11 20:50:00;;;;;;;1.77;1.10;;;;;;;11.04;98.35;97169.34;10412014;28;20275;-71
2022/07/11 20:55:00;;;;;;;4.97;1.70;;;;;;;10.93;100.00;97177.41;10410366;28;20220;-71
2022/07/11 21:00:00;;;;;;;1.33;1.17;;;;;;;10.84;100.00;97175.66;10411706;28;20189;-70
2022/07/11 21:05:01;;;;;;;1.93;1.37;;;;;;;10.72;100.00;97177.69;10410484;28;20252;-71
2022/07/11 21:10:01;;;;;;;2.47;1.30;;;;;;;10.57;100.00;97185.19;10411836;28;20223;-71
2022/07/11 21:15:02;;;;;;;1.07;1.07;;;;;;;10.46;100.00;97188.81;10408248;28;20607;-71
2022/07/11 21:20:03;;;;;;;1.23;1.10;;;;;;;10.42;100.00;97195.31;10408979;28;20188;-71
2022/07/11 21:25:04;;;;;;;4.27;1.47;;;;;;;10.32;100.00;97200.56;10407420;28;20184;-71
2022/07/11 21:30:05;;;;;;;1.93;1.20;;;;;;;10.21;100.00;97187.63;10406791;28;20715;-71
2022/07/11 21:35:06;;;;;;;3.30;1.27;;;;;;;10.14;100.00;97199.66;10389876;28;20228;-71
2022/07/11 21:40:07;;;;;;;1.33;1.10;;;;;;;10.08;100.00;97200.22;10409660;28;20723;-71
2022/07/11 21:45:08;;;;;;;4.07;1.40;;;;;;;9.98;100.00;97201.06;10409637;28;20216;-71
2022/07/11 21:50:09;;;;;;;1.47;1.37;;;;;;;9.89;100.00;97204.53;10409958;28;20180;-71
2022/07/11 21:55:09;;;;;;;2.27;1.40;;;;;;;9.88;100.00;97202.03;10408004;28;20216;-71
2022/07/11 22:00:11;;;;;;;2.10;1.40;;;;;;;9.72;100.00;97202.59;10409636;28;20188;-71
2022/07/11 22:05:11;;;;;;;2.00;1.73;;;;;;;9.68;100.00;97212.50;10408333;28;20388;-71
2022/07/11 22:10:12;;;;;;;3.33;1.50;;;;;;;9.61;100.00;97217.44;10408486;28;20566;-71
2022/07/11 22:15:13;;;;;;;2.13;1.70;;;;;;;9.59;100.00;97213.34;10408480;28;20216;-71
2022/07/11 22:20:13;;;;;;;1.43;1.20;;;;;;;9.57;100.00;97210.88;10409052;28;20203;-71
2022/07/11 22:25:14;;;;;;;2.07;1.20;;;;;;;9.55;100.00;97214.56;10408282;28;20188;-71
2022/07/11 22:30:14;;;;;;;1.57;1.20;;;;;;;9.44;100.00;97215.53;10408372;28;20193;-71
2022/07/11 22:35:15;;;;;;;2.63;1.40;;;;;;;9.35;100.00;97204.09;10408311;28;20220;-71
2022/07/11 22:40:16;;;;;;;3.63;1.60;;;;;;;9.30;100.00;97210.72;10408080;28;20206;-70
2022/07/11 22:45:16;;;;;;;1.90;1.33;;;;;;;9.26;100.00;97205.75;10409312;28;20192;-71
2022/07/11 22:50:17;;;;;;;2.17;1.37;;;;;;;9.19;100.00;97204.66;10422077;28;20283;-71
2022/07/11 22:55:17;;;;;;;2.03;1.40;;;;;;;9.08;100.00;97208.19;10415053;28;20226;-71
2022/07/11 23:00:18;;;;;;;1.30;1.13;;;;;;;9.09;100.00;97215.06;10421718;28;20204;-71
2022/07/11 23:05:18;;;;;;;1.40;1.30;;;;;;;9.02;100.00;97220.97;10420506;28;20254;-71
2022/07/11 23:10:19;;;;;;;1.87;1.63;;;;;;;8.95;100.00;97206.81;10421673;28;20200;-71
2022/07/11 23:15:19;;;;;;;2.60;1.57;;;;;;;9.02;100.00;97203.53;10421472;28;20220;-71
2022/07/11 23:20:19;;;;;;;4.00;1.50;;;;;;;8.96;100.00;97203.22;10421055;28;20189;-71
2022/07/11 23:25:20;;;;;;;1.80;1.40;;;;;;;8.83;100.00;97212.13;10421180;28;20180;-70
2022/07/11 23:30:20;;;;;;;1.50;1.13;;;;;;;8.82;100.00;97210.47;10420928;28;20200;-71
2022/07/11 23:35:21;;;;;;;2.77;1.77;;;;;;;8.84;100.00;97210.34;10421006;28;20212;-71
2022/07/11 23:40:21;;;;;;;4.60;1.77;;;;;;;8.73;100.00;97196.44;10420543;28;20490;-71
2022/07/11 23:45:21;;;;;;;3.20;1.60;;;;;;;8.77;100.00;97199.59;10420708;28;20192;-71
2022/07/11 23:50:22;;;;;;;2.40;1.63;;;;;;;8.71;100.00;97200.13;10420634;28;20195;-70
2022/07/11 23:55:22;;;;;;;1.97;1.30;;;;;;;8.74;100.00;97210.31;10419722;28;20307;-71
